createdAt,value
2018-04-06T00:02:24.127Z,1.47
2018-04-06T00:04:51.359Z,1.73
2018-04-06T00:07:18.669Z,1.33
2018-04-06T00:09:45.706Z,1.03
2018-04-06T00:12:13.461Z,0.90
2018-04-06T00:14:41.229Z,2.20
2018-04-06T00:17:08.575Z,0.70
2018-04-06T00:19:35.828Z,0.50
2018-04-06T00:22:03.151Z,0.50
2018-04-06T00:24:30.374Z,0.70
2018-04-06T00:26:57.518Z,0.40
2018-04-06T00:29:24.797Z,0.40
2018-04-06T00:31:52.577Z,0.40
2018-04-06T00:34:19.609Z,0.43
2018-04-06T00:36:47.047Z,0.50
2018-04-06T00:39:14.183Z,0.70
2018-04-06T00:41:41.936Z,0.70
2018-04-06T00:44:09.278Z,0.60
2018-04-06T00:46:36.640Z,0.57
2018-04-06T00:49:03.738Z,0.80
2018-04-06T00:51:30.765Z,1.20
2018-04-06T00:53:58.040Z,0.63
2018-04-06T00:56:26.046Z,0.80
2018-04-06T00:58:53.163Z,0.73
2018-04-06T01:01:21.010Z,0.70
2018-04-06T01:03:48.221Z,0.90
2018-04-06T01:06:15.498Z,0.87
2018-04-06T01:08:42.737Z,1.27
2018-04-06T01:11:09.813Z,0.87
2018-04-06T01:13:37.090Z,0.80
2018-04-06T01:16:05.120Z,0.80
2018-04-06T01:18:32.289Z,1.03
2018-04-06T01:21:00.222Z,0.70
2018-04-06T01:23:27.569Z,1.10
2018-04-06T01:25:54.802Z,1.20
2018-04-06T01:28:22.662Z,0.80
2018-04-06T01:30:49.947Z,1.30
2018-04-06T01:33:16.971Z,0.70
2018-04-06T01:35:44.234Z,0.90
2018-04-06T01:38:12.221Z,1.30
2018-04-06T01:40:39.237Z,1.17
2018-04-06T01:43:07.018Z,1.10
2018-04-06T01:45:35.158Z,0.90
2018-04-06T01:48:02.449Z,1.00
2018-04-06T01:50:29.666Z,0.70
2018-04-06T01:52:56.915Z,1.00
2018-04-06T01:55:24.824Z,0.93
2018-04-06T01:57:52.034Z,0.70
2018-04-06T02:00:19.154Z,0.87
2018-04-06T02:02:46.377Z,0.90
2018-04-06T02:05:13.490Z,1.10
2018-04-06T02:07:40.844Z,1.20
2018-04-06T02:10:08.138Z,1.37
2018-04-06T02:12:35.199Z,0.77
2018-04-06T02:15:02.290Z,1.67
2018-04-06T02:17:29.745Z,0.93
2018-04-06T02:19:56.846Z,1.20
2018-04-06T02:22:24.130Z,1.00
2018-04-06T02:24:51.342Z,1.10
2018-04-06T02:27:18.416Z,0.90
2018-04-06T02:29:45.445Z,1.20
2018-04-06T02:32:12.462Z,1.33
2018-04-06T02:34:39.722Z,0.90
2018-04-06T02:37:07.521Z,0.93
2018-04-06T02:39:34.543Z,1.23
2018-04-06T02:42:01.582Z,1.42
2018-04-06T02:44:28.564Z,1.70
2018-04-06T02:46:55.622Z,1.00
2018-04-06T02:49:22.627Z,1.03
2018-04-06T02:51:49.657Z,1.83
2018-04-06T02:54:17.460Z,1.25
2018-04-06T02:56:44.553Z,1.00
2018-04-06T02:59:11.579Z,0.90
2018-04-06T03:01:38.605Z,1.20
2018-04-06T03:04:05.648Z,0.80
2018-04-06T03:06:33.423Z,1.00
2018-04-06T03:09:00.463Z,1.13
2018-04-06T03:11:28.220Z,1.50
2018-04-06T03:13:56.246Z,1.13
2018-04-06T03:16:23.266Z,1.10
2018-04-06T03:18:50.282Z,1.17
2018-04-06T03:21:17.300Z,1.30
2018-04-06T03:23:45.126Z,1.43
2018-04-06T03:26:12.166Z,1.60
2018-04-06T03:28:39.210Z,1.40
2018-04-06T03:31:06.319Z,1.33
2018-04-06T03:33:34.089Z,1.33
2018-04-06T03:36:01.169Z,1.20
2018-04-06T03:38:28.157Z,1.23
2018-04-06T03:40:55.185Z,0.93
2018-04-06T03:43:22.186Z,1.47
2018-04-06T03:45:50.212Z,1.40
2018-04-06T03:48:17.214Z,1.20
2018-04-06T03:50:44.209Z,0.90
2018-04-06T03:53:11.237Z,1.57
2018-04-06T03:55:38.261Z,1.30
2018-04-06T03:58:05.278Z,1.00
2018-04-06T04:00:33.044Z,1.50
2018-04-06T04:03:00.064Z,1.30
2018-04-06T04:05:27.198Z,1.00
2018-04-06T04:07:54.213Z,0.90
2018-04-06T04:10:21.231Z,1.07
2018-04-06T04:12:48.977Z,1.00
2018-04-06T04:15:15.992Z,1.30
2018-04-06T04:17:43.058Z,1.13
2018-04-06T04:20:10.065Z,1.07
2018-04-06T04:22:37.312Z,1.20
2018-04-06T04:25:04.424Z,3.20
2018-04-06T04:27:31.734Z,26.67
2018-04-06T04:29:58.910Z,7.50
2018-04-06T04:32:25.956Z,2.70
2018-04-06T04:34:53.901Z,1.80
2018-04-06T04:37:20.932Z,1.70
2018-04-06T04:39:48.240Z,1.57
2018-04-06T04:42:15.387Z,1.80
2018-04-06T04:44:43.277Z,1.63
2018-04-06T04:47:10.473Z,1.30
2018-04-06T04:49:37.502Z,1.30
2018-04-06T04:52:04.556Z,1.90
2018-04-06T04:54:31.577Z,2.03
2018-04-06T04:56:58.882Z,2.80
2018-04-06T04:59:26.309Z,2.50
2018-04-06T05:01:53.594Z,1.90
2018-04-06T05:04:21.388Z,1.77
2018-04-06T05:06:49.238Z,1.60
2018-04-06T05:09:16.238Z,2.10
2018-04-06T05:11:43.261Z,1.70
2018-04-06T05:14:10.566Z,2.50
2018-04-06T05:16:37.685Z,2.70
2018-04-06T05:19:05.044Z,4.70
2018-04-06T05:21:33.088Z,4.70
2018-04-06T05:24:00.938Z,5.53
2018-04-06T05:26:28.742Z,6.37
2018-04-06T05:28:56.010Z,5.68
2018-04-06T05:31:23.798Z,5.62
2018-04-06T05:33:51.041Z,5.47
2018-04-06T05:36:19.198Z,4.27
2018-04-06T05:38:46.581Z,4.90
2018-04-06T05:41:13.692Z,5.20
2018-04-06T05:43:40.741Z,4.70
2018-04-06T05:46:08.468Z,4.80
2018-04-06T05:48:36.201Z,6.53
2018-04-06T05:51:03.392Z,7.30
2018-04-06T05:53:31.365Z,8.90
2018-04-06T05:55:58.645Z,7.63
2018-04-06T05:58:25.701Z,6.50
2018-04-06T06:00:52.731Z,4.87
2018-04-06T06:03:20.926Z,4.17
2018-04-06T06:05:48.085Z,5.03
2018-04-06T06:08:15.085Z,3.70
2018-04-06T06:10:43.147Z,4.07
2018-04-06T06:13:10.731Z,1.50
2018-04-06T06:15:38.225Z,1.63
2018-04-06T06:18:05.407Z,1.47
2018-04-06T06:20:32.703Z,1.27
2018-04-06T06:22:59.809Z,1.57
2018-04-06T06:25:27.830Z,1.80
2018-04-06T06:27:55.633Z,1.30
2018-04-06T06:30:22.658Z,1.60
2018-04-06T06:32:50.652Z,1.73
2018-04-06T06:35:18.493Z,1.70
2018-04-06T06:37:45.513Z,1.50
2018-04-06T06:40:12.748Z,1.17
2018-04-06T06:42:40.710Z,1.17
2018-04-06T06:45:07.889Z,1.43
2018-04-06T06:47:35.347Z,1.40
2018-04-06T06:50:03.192Z,1.77
2018-04-06T06:52:30.223Z,1.60
2018-04-06T06:54:58.123Z,1.70
2018-04-06T06:57:25.279Z,1.47
2018-04-06T06:59:52.498Z,2.00
2018-04-06T07:02:19.575Z,1.53
2018-04-06T07:04:46.601Z,2.00
2018-04-06T07:07:14.704Z,1.77
2018-04-06T07:09:41.741Z,1.47
2018-04-06T07:12:09.029Z,1.57
2018-04-06T07:14:36.585Z,1.17
2018-04-06T07:17:05.232Z,1.30
2018-04-06T07:19:33.448Z,1.43
2018-04-06T07:22:01.329Z,1.33
2018-04-06T07:24:28.617Z,2.00
2018-04-06T07:26:55.962Z,1.10
2018-04-06T07:29:23.894Z,1.77
2018-04-06T07:31:50.926Z,1.20
2018-04-06T07:34:18.122Z,1.30
2018-04-06T07:36:45.334Z,1.47
2018-04-06T07:39:12.516Z,1.80
2018-04-06T07:41:39.718Z,2.00
2018-04-06T07:44:06.767Z,1.40
2018-04-06T07:46:33.841Z,1.00
2018-04-06T07:49:01.122Z,1.30
2018-04-06T07:51:28.226Z,1.57
2018-04-06T07:53:55.250Z,1.53
2018-04-06T07:56:22.511Z,1.37
2018-04-06T07:58:49.558Z,1.57
2018-04-06T08:01:16.702Z,1.30
2018-04-06T08:03:43.774Z,1.63
2018-04-06T08:06:10.810Z,1.40
2018-04-06T08:08:37.843Z,2.17
2018-04-06T08:11:04.891Z,1.30
2018-04-06T08:13:32.094Z,1.30
2018-04-06T08:15:59.186Z,1.27
2018-04-06T08:18:26.573Z,1.33
2018-04-06T08:20:53.855Z,2.00
2018-04-06T08:23:21.008Z,1.37
2018-04-06T08:25:48.109Z,1.77
2018-04-06T08:28:16.166Z,1.77
2018-04-06T08:30:43.232Z,1.67
2018-04-06T08:33:10.246Z,1.60
2018-04-06T08:35:37.322Z,1.43
2018-04-06T08:38:05.364Z,1.53
2018-04-06T08:40:32.529Z,1.50
2018-04-06T08:42:59.599Z,1.90
2018-04-06T08:45:26.694Z,1.90
2018-04-06T08:47:54.473Z,1.70
2018-04-06T08:50:21.531Z,1.80
2018-04-06T08:52:48.721Z,1.33
2018-04-06T08:55:15.922Z,1.70
2018-04-06T08:57:43.771Z,1.97
2018-04-06T09:00:11.809Z,1.40
2018-04-06T09:02:39.257Z,1.87
2018-04-06T09:05:07.082Z,1.57
2018-04-06T09:07:34.108Z,1.50
2018-04-06T09:10:01.158Z,1.60
2018-04-06T09:12:28.897Z,1.87
2018-04-06T09:14:55.914Z,1.60
2018-04-06T09:17:22.977Z,2.10
2018-04-06T09:19:50.067Z,1.53
2018-04-06T09:22:17.073Z,1.60
2018-04-06T09:24:44.065Z,1.57
2018-04-06T09:27:11.154Z,1.77
2018-04-06T09:29:38.179Z,1.57
2018-04-06T09:32:05.230Z,1.30
2018-04-06T09:34:32.291Z,1.10
2018-04-06T09:37:00.051Z,1.67
2018-04-06T09:39:27.079Z,1.20
2018-04-06T09:41:54.869Z,2.17
2018-04-06T09:44:21.870Z,1.27
2018-04-06T09:46:49.706Z,1.70
2018-04-06T09:49:16.717Z,1.60
2018-04-06T09:51:43.982Z,1.70
2018-04-06T09:54:11.053Z,1.30
2018-04-06T09:56:38.078Z,1.23
2018-04-06T09:59:05.124Z,1.13
2018-04-06T10:01:35.119Z,1.30
2018-04-06T10:04:02.133Z,1.70
2018-04-06T10:06:29.473Z,1.43
2018-04-06T10:08:56.684Z,1.70
2018-04-06T10:11:24.953Z,2.07
2018-04-06T10:13:53.065Z,1.77
2018-04-06T10:16:24.814Z,3.10
2018-04-06T10:18:55.259Z,2.07
2018-04-06T10:24:03.561Z,2.00
2018-04-06T10:26:57.558Z,1.67
2018-04-06T10:32:32.199Z,2.40
2018-04-06T10:34:59.325Z,1.80
2018-04-06T10:37:29.135Z,2.00
2018-04-06T10:40:00.119Z,2.00
2018-04-06T10:42:39.947Z,2.07
2018-04-06T10:45:08.359Z,1.80
2018-04-06T10:47:35.515Z,1.70
2018-04-06T10:50:03.310Z,1.90
2018-04-06T10:52:30.599Z,2.43
2018-04-06T10:54:57.616Z,3.43
2018-04-06T10:57:24.714Z,1.57
2018-04-06T10:59:51.730Z,2.47
2018-04-06T11:02:18.836Z,2.17
2018-04-06T11:04:46.582Z,1.77
2018-04-06T11:07:14.342Z,1.87
2018-04-06T11:09:41.361Z,1.50
2018-04-06T11:12:08.400Z,1.73
2018-04-06T11:14:35.632Z,1.80
2018-04-06T11:17:03.650Z,2.07
2018-04-06T11:19:30.872Z,2.27
2018-04-06T11:21:57.987Z,3.43
2018-04-06T11:24:25.034Z,3.63
2018-04-06T11:26:52.895Z,1.77
2018-04-06T11:29:20.875Z,2.20
2018-04-06T11:31:48.123Z,1.70
2018-04-06T11:34:17.287Z,2.07
2018-04-06T11:36:44.513Z,1.73
2018-04-06T11:39:11.837Z,2.13
2018-04-06T11:41:39.582Z,1.87
2018-04-06T11:44:06.622Z,1.50
2018-04-06T11:46:33.879Z,1.70
2018-04-06T11:49:01.634Z,2.63
2018-04-06T11:51:28.649Z,2.20
2018-04-06T11:53:57.030Z,2.00
2018-04-06T11:56:24.090Z,2.23
2018-04-06T11:58:51.078Z,1.90
2018-04-06T12:01:18.844Z,2.60
2018-04-06T12:03:45.831Z,2.10
2018-04-06T12:06:12.870Z,1.83
2018-04-06T12:08:39.965Z,2.13
2018-04-06T12:11:06.963Z,2.53
2018-04-06T12:13:33.962Z,3.30
2018-04-06T12:16:01.078Z,2.37
2018-04-06T12:18:28.068Z,2.90
2018-04-06T12:20:55.165Z,2.70
2018-04-06T12:23:22.163Z,2.53
2018-04-06T12:25:49.237Z,2.53
2018-04-06T12:28:16.286Z,2.33
2018-04-06T12:30:44.049Z,2.90
2018-04-06T12:33:11.769Z,2.90
2018-04-06T12:35:38.885Z,2.80
2018-04-06T12:38:05.919Z,3.43
2018-04-06T12:40:33.646Z,3.43
2018-04-06T12:43:00.666Z,2.97
2018-04-06T12:45:28.077Z,2.70
2018-04-06T12:47:55.324Z,2.80
2018-04-06T12:50:22.509Z,3.50
2018-04-06T12:52:50.568Z,3.40
2018-04-06T12:55:18.425Z,2.73
2018-04-06T12:57:45.695Z,2.70
2018-04-06T13:00:13.912Z,3.23
2018-04-06T13:02:41.010Z,3.03
2018-04-06T13:05:08.185Z,3.63
2018-04-06T13:07:35.304Z,3.00
2018-04-06T13:10:02.645Z,2.93
2018-04-06T13:12:29.702Z,3.60
2018-04-06T13:14:57.457Z,4.00
2018-04-06T13:17:24.694Z,3.30
2018-04-06T13:19:51.669Z,3.27
2018-04-06T13:22:18.775Z,3.40
2018-04-06T13:24:46.733Z,3.63
2018-04-06T13:27:13.845Z,3.73
2018-04-06T13:29:41.430Z,3.57
2018-04-06T13:32:09.385Z,3.23
2018-04-06T13:34:36.475Z,3.60
2018-04-06T13:37:03.584Z,3.20
2018-04-06T13:39:30.870Z,3.63
2018-04-06T13:41:57.954Z,4.07
2018-04-06T13:44:25.004Z,3.17
2018-04-06T13:46:52.107Z,4.00
2018-04-06T13:49:19.143Z,3.10
2018-04-06T13:51:46.863Z,3.20
2018-04-06T13:54:14.235Z,3.17
2018-04-06T13:56:41.406Z,3.33
2018-04-06T13:59:08.469Z,3.57
2018-04-06T14:01:35.481Z,4.60
2018-04-06T14:04:02.493Z,5.07
2018-04-06T14:06:45.206Z,4.20
2018-04-06T14:09:12.937Z,3.70
2018-04-06T14:11:39.943Z,4.23
2018-04-06T14:14:06.942Z,3.63
2018-04-06T14:16:34.049Z,3.90
2018-04-06T14:19:01.047Z,5.97
2018-04-06T14:21:28.054Z,4.20
2018-04-06T14:23:55.071Z,4.30
2018-04-06T14:26:22.190Z,13.53
2018-04-06T14:28:49.937Z,3.90
2018-04-06T14:31:17.008Z,3.97
2018-04-06T14:33:44.010Z,5.17
2018-04-06T14:36:11.029Z,7.37
2018-04-06T14:38:38.028Z,4.53
2018-04-06T14:41:05.038Z,11.30
2018-04-06T14:43:32.045Z,43.93
2018-04-06T14:46:00.048Z,9.40
2018-04-06T14:48:27.033Z,28.40
2018-04-06T14:50:54.042Z,6.17
2018-04-06T14:53:21.046Z,13.87
2018-04-06T14:55:48.849Z,4.50
2018-04-06T14:58:16.678Z,4.00
2018-04-06T15:00:44.461Z,6.93
2018-04-06T15:03:12.236Z,8.00
2018-04-06T15:05:39.292Z,4.67
2018-04-06T15:08:06.654Z,15.00
2018-04-06T15:10:33.962Z,4.80
2018-04-06T15:13:01.002Z,3.20
2018-04-06T15:15:28.157Z,3.80
2018-04-06T15:17:55.900Z,3.53
2018-04-06T15:20:23.670Z,3.60
2018-04-06T15:22:50.685Z,6.00
2018-04-06T15:25:17.726Z,3.43
2018-04-06T15:27:44.721Z,3.37
2018-04-06T15:30:11.696Z,3.10
2018-04-06T15:32:39.051Z,3.17
2018-04-06T15:35:06.136Z,3.87
2018-04-06T15:37:33.928Z,3.70
2018-04-06T15:40:01.002Z,3.67
2018-04-06T15:42:28.054Z,3.50
2018-04-06T15:44:55.069Z,4.00
2018-04-06T15:47:22.133Z,2.70
2018-04-06T15:49:49.150Z,3.10
2018-04-06T15:52:16.126Z,3.10
2018-04-06T15:54:43.409Z,3.57
2018-04-06T15:57:10.549Z,6.70
2018-04-06T15:59:37.555Z,5.97
2018-04-06T16:02:04.613Z,5.93
2018-04-06T16:04:31.627Z,3.70
2018-04-06T16:06:58.958Z,5.50
2018-04-06T16:09:26.005Z,4.30
2018-04-06T16:11:53.093Z,3.20
2018-04-06T16:14:20.134Z,9.73
2018-04-06T16:16:47.158Z,5.03
2018-04-06T16:19:14.931Z,4.17
2018-04-06T16:21:42.271Z,3.23
2018-04-06T16:24:09.348Z,3.40
2018-04-06T16:26:36.385Z,3.10
2018-04-06T16:29:03.441Z,6.17
2018-04-06T16:31:30.531Z,4.50
2018-04-06T16:33:58.297Z,3.40
2018-04-06T16:36:25.418Z,3.40
2018-04-06T16:38:52.462Z,3.40
2018-04-06T16:41:19.446Z,3.17
2018-04-06T16:43:46.479Z,4.40
2018-04-06T16:46:13.598Z,3.60
2018-04-06T16:48:40.664Z,4.53
2018-04-06T16:51:07.861Z,3.07
2018-04-06T16:53:35.684Z,5.27
2018-04-06T16:56:04.009Z,2.87
2018-04-06T16:58:31.116Z,2.80
2018-04-06T17:00:58.173Z,3.60
2018-04-06T17:03:25.983Z,3.07
2018-04-06T17:05:53.037Z,2.90
2018-04-06T17:08:20.035Z,3.63
2018-04-06T17:10:47.050Z,5.33
2018-04-06T17:13:14.085Z,14.17
2018-04-06T17:15:41.161Z,3.67
2018-04-06T17:18:08.947Z,4.50
2018-04-06T17:20:35.931Z,6.90
2018-04-06T17:23:02.989Z,8.87
2018-04-06T17:25:30.054Z,8.03
2018-04-06T17:27:57.056Z,7.40
2018-04-06T17:30:24.061Z,8.50
2018-04-06T17:32:51.369Z,8.33
2018-04-06T17:35:18.429Z,8.73
2018-04-06T17:37:45.452Z,8.20
2018-04-06T17:40:12.677Z,8.50
2018-04-06T17:42:40.442Z,9.40
2018-04-06T17:45:08.210Z,9.50
2018-04-06T17:47:37.209Z,9.93
2018-04-06T17:50:04.337Z,9.60
2018-04-06T17:52:32.306Z,9.83
2018-04-06T17:54:59.518Z,10.30
2018-04-06T17:57:28.874Z,10.73
2018-04-06T17:59:56.025Z,9.13
2018-04-06T18:02:23.017Z,18.43
2018-04-06T18:04:50.270Z,15.90
2018-04-06T18:07:18.460Z,14.20
2018-04-06T18:09:46.211Z,13.03
2018-04-06T18:12:13.228Z,9.70
2018-04-06T18:14:40.201Z,8.83
2018-04-06T18:17:07.431Z,9.07
2018-04-06T18:19:35.167Z,9.00
2018-04-06T18:22:02.175Z,9.33
2018-04-06T18:24:29.926Z,7.47
2018-04-06T18:26:56.931Z,9.43
2018-04-06T18:29:24.482Z,9.47
2018-04-06T18:31:51.510Z,10.27
2018-04-06T18:34:19.566Z,8.43
2018-04-06T18:36:47.406Z,8.80
2018-04-06T18:39:14.377Z,9.50
2018-04-06T18:41:41.361Z,9.20
2018-04-06T18:44:08.434Z,9.27
2018-04-06T18:46:35.458Z,8.57
2018-04-06T18:49:02.510Z,8.60
2018-04-06T18:51:29.734Z,8.30
2018-04-06T18:53:56.833Z,9.40
2018-04-06T18:56:24.366Z,7.60
2018-04-06T18:58:51.667Z,9.10
2018-04-06T19:01:18.877Z,8.23
2018-04-06T19:03:46.035Z,10.00
2018-04-06T19:06:13.228Z,8.53
2018-04-06T19:08:40.960Z,7.40
2018-04-06T19:11:08.418Z,8.10
2018-04-06T19:13:35.727Z,9.20
2018-04-06T19:16:03.303Z,8.90
2018-04-06T19:18:31.058Z,9.73
2018-04-06T19:20:58.615Z,9.43
2018-04-06T19:23:26.342Z,9.80
2018-04-06T19:25:53.618Z,9.00
2018-04-06T19:28:20.837Z,11.00
2018-04-06T19:30:47.946Z,10.73
2018-04-06T19:33:15.087Z,11.80
2018-04-06T19:35:42.174Z,11.97
2018-04-06T19:38:09.328Z,14.10
2018-04-06T19:40:36.334Z,13.00
2018-04-06T19:43:03.339Z,13.20
2018-04-06T19:45:30.478Z,13.13
2018-04-06T19:47:58.799Z,13.73
2018-04-06T19:50:25.955Z,12.07
2018-04-06T19:52:53.703Z,15.50
2018-04-06T19:55:21.406Z,27.30
2018-04-06T19:57:48.534Z,25.00
2018-04-06T20:00:15.550Z,27.37
2018-04-06T20:02:42.585Z,22.47
2018-04-06T20:05:09.606Z,21.53
2018-04-06T20:07:37.618Z,19.80
2018-04-06T20:10:04.624Z,20.43
2018-04-06T20:12:31.682Z,29.73
2018-04-06T20:14:59.350Z,34.70
2018-04-06T20:17:27.227Z,36.17
2018-04-06T20:19:55.490Z,44.07
2018-04-06T20:22:22.602Z,39.90
2018-04-06T20:24:49.588Z,39.43
2018-04-06T20:27:17.150Z,33.70
2018-04-06T20:29:45.062Z,32.17
2018-04-06T20:32:13.123Z,28.00
2018-04-06T20:34:40.440Z,28.43
2018-04-06T20:37:07.599Z,27.20
2018-04-06T20:39:35.093Z,26.00
2018-04-06T20:42:02.980Z,23.60
2018-04-06T20:44:29.986Z,23.07
2018-04-06T20:46:57.008Z,24.13
2018-04-06T20:49:24.057Z,27.10
2018-04-06T20:51:51.033Z,25.27
2018-04-06T20:54:18.038Z,33.13
2018-04-06T20:56:45.082Z,33.40
2018-04-06T20:59:12.681Z,30.37
2018-04-06T21:01:40.242Z,43.67
2018-04-06T21:04:07.306Z,40.33
2018-04-06T21:06:34.446Z,33.80
2018-04-06T21:09:01.454Z,35.73
2018-04-06T21:11:28.921Z,33.43
2018-04-06T21:13:56.047Z,21.00
2018-04-06T21:16:23.120Z,17.77
2018-04-06T21:18:50.238Z,16.33
2018-04-06T21:21:17.377Z,14.50
2018-04-06T21:23:44.401Z,13.10
2018-04-06T21:26:12.226Z,12.70
2018-04-06T21:28:40.041Z,10.30
2018-04-06T21:31:07.380Z,10.83
2018-04-06T21:33:34.367Z,10.27
2018-04-06T21:36:01.491Z,11.30
2018-04-06T21:38:28.887Z,12.00
2018-04-06T21:40:56.241Z,11.23
2018-04-06T21:43:23.331Z,10.50
2018-04-06T21:45:51.331Z,10.67
2018-04-06T21:48:19.222Z,10.47
2018-04-06T21:50:46.306Z,9.33
2018-04-06T21:53:13.515Z,11.47
2018-04-06T21:55:40.638Z,10.67
2018-04-06T21:58:08.435Z,9.90
2018-04-06T22:00:35.482Z,9.13
2018-04-06T22:03:02.649Z,9.63
2018-04-06T22:05:29.705Z,9.40
2018-04-06T22:07:56.883Z,9.80
2018-04-06T22:10:24.775Z,11.67
2018-04-06T22:12:52.722Z,9.83
2018-04-06T22:15:19.835Z,10.20
2018-04-06T22:17:46.886Z,9.10
2018-04-06T22:20:14.129Z,10.00
2018-04-06T22:22:41.922Z,8.70
2018-04-06T22:25:08.941Z,8.67
2018-04-06T22:27:35.998Z,9.70
2018-04-06T22:30:03.088Z,9.53
2018-04-06T22:32:30.142Z,10.10
2018-04-06T22:34:57.168Z,9.33
2018-04-06T22:37:24.305Z,11.10
2018-04-06T22:39:51.672Z,10.57
2018-04-06T22:42:19.665Z,10.63
2018-04-06T22:44:47.530Z,10.20
2018-04-06T22:47:15.386Z,9.60
2018-04-06T22:49:42.412Z,10.20
2018-04-06T22:52:09.817Z,10.20
2018-04-06T22:54:36.929Z,10.13
2018-04-06T22:57:04.288Z,11.40
2018-04-06T22:59:31.273Z,9.60
2018-04-06T23:01:58.302Z,9.93
2018-04-06T23:04:25.326Z,9.82
2018-04-06T23:06:52.416Z,10.90
2018-04-06T23:09:20.160Z,10.77
2018-04-06T23:11:47.200Z,10.30
2018-04-06T23:14:14.976Z,11.70
2018-04-06T23:16:42.059Z,13.82
2018-04-06T23:19:09.069Z,12.53
2018-04-06T23:21:36.941Z,11.10
2018-04-06T23:24:03.973Z,10.52
2018-04-06T23:26:31.072Z,8.82
2018-04-06T23:28:58.097Z,9.57
2018-04-06T23:31:25.085Z,9.90
2018-04-06T23:33:53.130Z,8.77
2018-04-06T23:36:21.196Z,10.55
2018-04-06T23:38:48.242Z,9.55
2018-04-06T23:41:15.249Z,9.18
2018-04-06T23:43:43.001Z,13.20
2018-04-06T23:46:10.828Z,11.10
2018-04-06T23:48:37.934Z,10.32
2018-04-06T23:51:05.262Z,9.30
2018-04-06T23:53:33.015Z,9.02
2018-04-06T23:56:01.063Z,10.50
2018-04-06T23:58:28.777Z,10.20
